Time;durP1;ratioP1;P1;durP2;ratioP2;P2;SDS_P1;SDS_P2;PMS_P1;PMS_P2;Temp;Humidity;BMP_temperature;BMP_pressure;BME280_temperature;BME280_humidity;BME280_pressure;Samples;Min_cycle;Max_cycle;Signal;HPM_P1;HPM_P2
2024/01/05 00:01:27;;;;;;;8.63;5.45;;;4.40;99.90;;;;;;5041701;28;20033;-69
2024/01/05 00:03:53;;;;;;;12.30;6.03;;;4.30;99.90;;;;;;5044924;28;20025;-69
2024/01/05 00:06:19;;;;;;;13.00;5.90;;;4.30;99.90;;;;;;5042353;28;20041;-69
2024/01/05 00:08:45;;;;;;;12.10;5.25;;;4.40;99.90;;;;;;5043787;28;20028;-69
2024/01/05 00:11:20;;;;;;;10.48;5.90;;;4.30;99.90;;;;;;5046910;28;20503;-69
2024/01/05 00:13:46;;;;;;;10.63;5.03;;;4.30;99.90;;;;;;5036638;28;20017;-69
2024/01/05 00:16:21;;;;;;;12.20;5.45;;;4.30;99.90;;;;;;5041575;28;20032;-69
2024/01/05 00:18:48;;;;;;;10.73;6.05;;;4.30;99.90;;;;;;5044831;28;20024;-69
2024/01/05 00:21:24;;;;;;;12.35;6.18;;;4.30;99.90;;;;;;5044225;28;20033;-69
2024/01/05 00:23:50;;;;;;;12.48;6.18;;;4.30;99.90;;;;;;5043584;28;20025;-69
2024/01/05 00:26:17;;;;;;;17.38;5.80;;;4.30;99.90;;;;;;5041803;28;20023;-69
2024/01/05 00:28:43;;;;;;;9.70;5.45;;;4.30;99.90;;;;;;5044851;28;20128;-69
2024/01/05 00:31:10;;;;;;;14.75;6.45;;;4.30;99.90;;;;;;5040319;28;20021;-69
2024/01/05 00:33:36;;;;;;;12.98;6.60;;;4.30;99.90;;;;;;5038752;28;20526;-69
2024/01/05 00:36:04;;;;;;;13.18;6.68;;;4.30;99.90;;;;;;5038610;28;20056;-69
2024/01/05 00:38:29;;;;;;;11.53;5.70;;;4.30;99.90;;;;;;5040814;28;20030;-70
2024/01/05 00:40:55;;;;;;;11.57;6.60;;;4.30;99.90;;;;;;5044379;28;20200;-69
2024/01/05 00:43:23;;;;;;;12.05;5.07;;;4.30;99.90;;;;;;5046029;28;20024;-69
2024/01/05 00:45:51;;;;;;;16.10;7.03;;;4.30;99.90;;;;;;5048036;22;20026;-69
2024/01/05 00:48:19;;;;;;;14.80;6.30;;;4.30;99.90;;;;;;5017776;28;20583;-69
2024/01/05 00:50:44;;;;;;;;;;;4.30;99.90;;;;;;5025823;28;20484;-69
2024/01/05 00:53:10;;;;;;;10.18;5.72;;;4.30;99.90;;;;;;5024975;28;19909;-69
2024/01/05 00:55:38;;;;;;;10.88;5.93;;;4.30;99.90;;;;;;5026238;28;20478;-69
2024/01/05 00:58:04;;;;;;;14.32;6.45;;;4.30;99.90;;;;;;5026018;28;20781;-69
2024/01/05 01:00:30;;;;;;;16.55;6.35;;;4.30;99.90;;;;;;5026054;28;20040;-69
2024/01/05 01:02:58;;;;;;;14.95;6.55;;;4.30;99.90;;;;;;5025642;28;20436;-69
2024/01/05 01:05:23;;;;;;;;;;;4.30;99.90;;;;;;5008686;28;20025;-69
2024/01/05 01:07:49;;;;;;;12.68;5.32;;;4.30;99.90;;;;;;5024756;28;19909;-69
2024/01/05 01:10:15;;;;;;;13.77;6.68;;;4.30;99.90;;;;;;5018464;28;20025;-69
2024/01/05 01:12:40;;;;;;;11.00;5.75;;;4.30;99.90;;;;;;5024797;28;20022;-69
2024/01/05 01:15:08;;;;;;;12.40;6.10;;;4.30;99.90;;;;;;5022555;28;20046;-69
2024/01/05 01:17:35;;;;;;;11.32;6.05;;;4.30;99.90;;;;;;5029712;28;20025;-69
2024/01/05 01:20:01;;;;;;;13.77;5.68;;;4.30;99.90;;;;;;5028067;28;20070;-69
2024/01/05 01:22:26;;;;;;;14.73;6.72;;;4.30;99.90;;;;;;5026633;28;20112;-69
2024/01/05 01:24:52;;;;;;;11.93;5.88;;;4.30;99.90;;;;;;5026712;28;20496;-69
2024/01/05 01:27:17;;;;;;;20.55;6.45;;;4.30;99.90;;;;;;5020872;28;20029;-69
2024/01/05 01:29:43;;;;;;;18.50;7.10;;;4.30;99.90;;;;;;5023737;28;20029;-69
2024/01/05 01:32:11;;;;;;;20.70;6.55;;;4.30;99.90;;;;;;5027059;28;20514;-69
2024/01/05 01:34:40;;;;;;;12.90;6.43;;;4.40;99.90;;;;;;5029182;28;20097;-69
2024/01/05 01:37:05;;;;;;;14.15;6.78;;;4.40;99.90;;;;;;5026915;28;20488;-69
2024/01/05 01:39:31;;;;;;;15.55;6.60;;;4.40;99.90;;;;;;5027971;28;20036;-69
2024/01/05 01:41:58;;;;;;;15.82;6.53;;;4.40;99.90;;;;;;5030845;28;20041;-69
2024/01/05 01:44:23;;;;;;;18.83;7.93;;;4.40;99.90;;;;;;5033460;28;20115;-70
2024/01/05 01:46:51;;;;;;;16.02;7.22;;;4.50;99.90;;;;;;5011567;28;20072;-69
2024/01/05 01:49:17;;;;;;;15.40;7.00;;;4.50;99.90;;;;;;5008578;28;20033;-69
2024/01/05 01:51:43;;;;;;;20.10;7.72;;;4.50;99.90;;;;;;5028115;28;20044;-69
2024/01/05 01:54:10;;;;;;;18.27;7.32;;;4.50;99.90;;;;;;5027931;28;20052;-69
2024/01/05 01:56:39;;;;;;;18.23;7.82;;;4.50;99.90;;;;;;5036054;28;20028;-69
2024/01/05 01:59:05;;;;;;;17.65;7.72;;;4.50;99.90;;;;;;5028949;28;20033;-69
2024/01/05 02:01:31;;;;;;;22.88;8.05;;;4.50;99.90;;;;;;5010178;28;20039;-69
2024/01/05 02:03:58;;;;;;;22.90;8.55;;;4.50;99.90;;;;;;5028992;28;20056;-69
2024/01/05 02:06:23;;;;;;;16.48;8.10;;;4.50;99.90;;;;;;5030485;28;20026;-69
2024/01/05 02:08:50;;;;;;;17.58;7.65;;;4.50;99.90;;;;;;5031356;28;20218;-69
2024/01/05 02:11:16;;;;;;;15.02;8.13;;;4.50;99.90;;;;;;5028224;28;20226;-69
2024/01/05 02:13:44;;;;;;;17.05;7.85;;;4.50;99.90;;;;;;5027292;28;20021;-69
2024/01/05 02:16:10;;;;;;;17.65;8.57;;;4.60;99.90;;;;;;5015273;28;20040;-69
2024/01/05 02:18:36;;;;;;;23.45;7.90;;;4.60;99.90;;;;;;5027577;28;20033;-69
2024/01/05 02:21:03;;;;;;;17.40;7.60;;;4.60;99.90;;;;;;5028802;28;20029;-69
2024/01/05 02:23:31;;;;;;;15.82;7.32;;;4.60;99.90;;;;;;5034925;28;20550;-69
2024/01/05 02:25:58;;;;;;;15.98;7.78;;;4.60;99.90;;;;;;5030025;28;20038;-69
2024/01/05 02:28:24;;;;;;;19.25;7.78;;;4.60;99.90;;;;;;5030805;28;20049;-69
2024/01/05 02:30:56;;;;;;;21.98;9.48;;;4.60;99.90;;;;;;5030166;28;20056;-68
2024/01/05 02:33:22;;;;;;;17.20;8.10;;;4.60;99.90;;;;;;5027208;28;20022;-69
2024/01/05 02:35:51;;;;;;;18.45;7.85;;;4.60;99.90;;;;;;5032323;28;20086;-69
2024/01/05 02:38:16;;;;;;;19.52;8.50;;;4.60;99.90;;;;;;5029076;28;20110;-69
2024/01/05 02:40:42;;;;;;;20.58;8.68;;;4.60;99.90;;;;;;5026146;28;20106;-69
2024/01/05 02:43:07;;;;;;;19.38;8.35;;;4.60;99.90;;;;;;5027035;28;20099;-69
2024/01/05 02:45:34;;;;;;;19.10;9.18;;;4.60;99.90;;;;;;5028646;28;20032;-69
2024/01/05 02:48:00;;;;;;;23.02;8.88;;;4.60;99.90;;;;;;5027654;28;20037;-69
2024/01/05 02:50:26;;;;;;;23.67;9.13;;;4.60;99.90;;;;;;5031782;28;20025;-69
2024/01/05 02:52:54;;;;;;;18.38;8.48;;;4.60;99.90;;;;;;5027542;28;20037;-69
2024/01/05 02:55:19;;;;;;;;;;;4.60;99.90;;;;;;5019541;28;20048;-69
2024/01/05 02:57:45;;;;;;;22.85;8.18;;;4.60;99.90;;;;;;5024241;28;19917;-69
2024/01/05 03:00:11;;;;;;;20.80;8.27;;;4.50;99.90;;;;;;5028730;28;20518;-69
2024/01/05 03:02:36;;;;;;;20.98;9.02;;;4.60;99.90;;;;;;5033413;28;20073;-69
2024/01/05 03:05:04;;;;;;;20.10;8.15;;;4.60;99.90;;;;;;5024112;28;21841;-69
2024/01/05 03:07:32;;;;;;;;;;;4.60;99.90;;;;;;5024858;28;20018;-69
2024/01/05 03:09:58;;;;;;;;;;;4.60;99.90;;;;;;5027762;28;19909;-69
2024/01/05 03:12:23;;;;;;;18.33;8.52;;;4.60;99.90;;;;;;5030619;28;20036;-69
2024/01/05 03:14:49;;;;;;;19.27;8.32;;;4.60;99.90;;;;;;5028031;28;20456;-69
2024/01/05 03:17:15;;;;;;;18.63;8.00;;;4.50;99.90;;;;;;5026954;28;20037;-69
2024/01/05 03:19:41;;;;;;;18.05;7.47;;;4.50;99.90;;;;;;5026972;28;20021;-69
2024/01/05 03:22:09;;;;;;;16.27;8.07;;;4.50;99.90;;;;;;5028851;28;20037;-69
2024/01/05 03:24:36;;;;;;;;;;;4.50;99.90;;;;;;5027715;28;20439;-69
2024/01/05 03:27:04;;;;;;;21.65;8.23;;;4.50;99.90;;;;;;5025827;28;19947;-69
2024/01/05 03:29:30;;;;;;;;;;;4.50;99.90;;;;;;5024926;28;20033;-69
2024/01/05 03:31:55;;;;;;;18.02;8.15;;;4.50;99.90;;;;;;5009945;28;20418;-69
2024/01/05 03:34:22;;;;;;;23.80;7.70;;;4.50;99.90;;;;;;5022821;28;20029;-69
2024/01/05 03:36:47;;;;;;;16.50;7.25;;;4.40;99.90;;;;;;5032552;28;20108;-69
2024/01/05 03:39:13;;;;;;;18.00;8.95;;;4.40;99.90;;;;;;5027432;28;20499;-69
2024/01/05 03:41:38;;;;;;;18.48;8.18;;;4.40;99.90;;;;;;5010924;28;20099;-69
2024/01/05 03:44:04;;;;;;;16.50;8.85;;;4.40;99.90;;;;;;5032787;28;20026;-69
2024/01/05 03:46:30;;;;;;;18.42;8.25;;;4.50;99.90;;;;;;5022056;28;20040;-69
2024/01/05 03:48:57;;;;;;;15.35;7.82;;;4.50;99.90;;;;;;5033802;28;20555;-69
2024/01/05 03:51:25;;;;;;;16.05;7.43;;;4.40;99.90;;;;;;5023038;28;20033;-69
2024/01/05 03:53:51;;;;;;;;;;;4.40;99.90;;;;;;5007433;28;20365;-69
2024/01/05 03:56:19;;;;;;;25.45;8.63;;;4.40;99.90;;;;;;5031261;28;19924;-69
2024/01/05 03:58:45;;;;;;;21.98;8.10;;;4.40;99.90;;;;;;5026423;28;20041;-68
2024/01/05 04:01:10;;;;;;;15.35;8.02;;;4.50;99.90;;;;;;5024944;28;20115;-69
2024/01/05 04:03:36;;;;;;;20.48;8.95;;;4.40;99.90;;;;;;5023072;28;20033;-69
2024/01/05 04:06:04;;;;;;;17.15;8.68;;;4.50;99.90;;;;;;5025955;28;20025;-69
2024/01/05 04:08:30;;;;;;;16.13;7.88;;;4.40;99.90;;;;;;5019267;28;20037;-69
2024/01/05 04:10:58;;;;;;;16.65;8.18;;;4.40;99.90;;;;;;5006736;28;20029;-69
2024/01/05 04:13:23;;;;;;;20.27;8.55;;;4.40;99.90;;;;;;5018886;28;20065;-69
2024/01/05 04:15:49;;;;;;;19.70;8.27;;;4.40;99.90;;;;;;5020889;28;20071;-69
2024/01/05 04:18:14;;;;;;;18.73;8.65;;;4.40;99.90;;;;;;5024260;28;20045;-69
2024/01/05 04:20:40;;;;;;;13.82;7.72;;;4.40;99.90;;;;;;5024491;28;20033;-69
2024/01/05 04:23:05;;;;;;;17.55;8.45;;;4.40;99.90;;;;;;5027489;28;20116;-69
2024/01/05 04:25:33;;;;;;;20.27;8.60;;;4.40;99.90;;;;;;5026085;28;20028;-69
2024/01/05 04:27:59;;;;;;;15.75;8.50;;;4.50;99.90;;;;;;5028267;28;20126;-69
2024/01/05 04:30:25;;;;;;;19.25;7.78;;;4.40;99.90;;;;;;5028976;28;20572;-69
2024/01/05 04:32:50;;;;;;;20.08;8.40;;;4.40;99.90;;;;;;5024578;28;20026;-69
2024/01/05 04:35:16;;;;;;;15.13;8.32;;;4.40;99.90;;;;;;5030441;28;20131;-69
2024/01/05 04:37:41;;;;;;;17.15;8.38;;;4.40;99.90;;;;;;5011555;28;20468;-69
2024/01/05 04:40:10;;;;;;;16.20;8.05;;;4.40;99.90;;;;;;5023540;28;20029;-69
2024/01/05 04:42:36;;;;;;;18.80;9.18;;;4.40;99.90;;;;;;5006060;28;20022;-69
2024/01/05 04:45:02;;;;;;;15.60;8.35;;;4.40;99.90;;;;;;5026985;28;20045;-69
2024/01/05 04:47:28;;;;;;;22.75;9.70;;;4.40;99.90;;;;;;5003692;28;20172;-69
2024/01/05 04:49:54;;;;;;;17.80;7.88;;;4.40;99.90;;;;;;5024624;28;20037;-69
2024/01/05 04:52:19;;;;;;;17.08;8.38;;;4.40;99.90;;;;;;5028757;28;20087;-69
2024/01/05 04:54:45;;;;;;;17.20;8.88;;;4.40;99.90;;;;;;5026838;28;20104;-69
2024/01/05 04:57:12;;;;;;;14.10;7.90;;;4.40;99.90;;;;;;5006053;28;20049;-69
2024/01/05 04:59:38;;;;;;;21.60;9.43;;;4.40;99.90;;;;;;5017166;28;20112;-69
2024/01/05 05:02:06;;;;;;;16.75;8.70;;;4.50;99.90;;;;;;5019688;28;20112;-69
2024/01/05 05:04:32;;;;;;;;;;;4.40;99.90;;;;;;5009086;28;20076;-69
2024/01/05 05:06:57;;;;;;;16.77;8.98;;;4.50;99.90;;;;;;5027406;28;20346;-69
2024/01/05 05:09:23;;;;;;;16.25;8.15;;;4.40;99.90;;;;;;5008681;28;20116;-69
2024/01/05 05:11:50;;;;;;;18.33;8.52;;;4.40;99.90;;;;;;5027211;28;20033;-69
2024/01/05 05:14:16;;;;;;;19.75;9.70;;;4.40;99.90;;;;;;5029340;28;20030;-69
2024/01/05 05:16:41;;;;;;;16.98;8.77;;;4.40;99.90;;;;;;5028557;28;20029;-69
2024/01/05 05:19:07;;;;;;;16.40;8.85;;;4.40;99.90;;;;;;5029864;28;20091;-69
2024/01/05 05:21:33;;;;;;;19.13;9.57;;;4.50;99.90;;;;;;5026899;28;20350;-69
2024/01/05 05:23:59;;;;;;;14.98;8.63;;;4.50;99.90;;;;;;5029066;28;20025;-69
2024/01/05 05:26:27;;;;;;;21.40;9.80;;;4.50;99.90;;;;;;5027552;28;20033;-69
2024/01/05 05:28:52;;;;;;;;;;;4.50;99.90;;;;;;5027353;28;20044;-68
2024/01/05 05:31:18;;;;;;;21.20;9.93;;;4.40;99.90;;;;;;5027160;28;19940;-69
2024/01/05 05:33:45;;;;;;;20.20;9.27;;;4.50;99.90;;;;;;5028788;28;20104;-69
2024/01/05 05:36:11;;;;;;;18.13;9.23;;;4.50;99.90;;;;;;5029535;28;20021;-70
2024/01/05 05:38:37;;;;;;;21.38;9.35;;;4.40;99.90;;;;;;5027736;28;20120;-72
2024/01/05 05:41:02;;;;;;;21.00;10.38;;;4.50;99.90;;;;;;5009796;28;20584;-69
2024/01/05 05:43:30;;;;;;;21.02;10.15;;;4.50;99.90;;;;;;5031085;28;20125;-69
2024/01/05 05:45:56;;;;;;;;;;;4.50;99.90;;;;;;5026413;28;20017;-69
2024/01/05 05:48:22;;;;;;;21.50;10.80;;;4.50;99.90;;;;;;5025100;28;19920;-69
2024/01/05 05:50:50;;;;;;;23.50;10.77;;;4.50;99.90;;;;;;5028318;28;20175;-69
2024/01/05 05:53:16;;;;;;;21.20;10.80;;;4.50;99.90;;;;;;5028104;28;20528;-69
2024/01/05 05:55:41;;;;;;;20.77;10.25;;;4.50;99.90;;;;;;5028932;28;20034;-69
2024/01/05 05:58:09;;;;;;;26.23;10.73;;;4.50;99.90;;;;;;5028289;28;20500;-69
2024/01/05 06:00:35;;;;;;;;;;;4.50;99.90;;;;;;5026560;28;20391;-69
2024/01/05 06:03:01;;;;;;;20.52;10.77;;;4.50;99.90;;;;;;5026027;28;19912;-69
2024/01/05 06:05:27;;;;;;;21.45;10.80;;;4.50;99.90;;;;;;5030655;28;20443;-69
2024/01/05 06:07:52;;;;;;;23.55;10.57;;;4.50;99.90;;;;;;5029463;28;20041;-69
2024/01/05 06:10:18;;;;;;;22.90;10.93;;;4.50;99.90;;;;;;5026911;28;20045;-69
2024/01/05 06:12:43;;;;;;;21.40;10.85;;;4.60;99.90;;;;;;5024799;28;20703;-69
2024/01/05 06:15:09;;;;;;;21.85;10.50;;;4.60;99.90;;;;;;5011331;28;20044;-69
2024/01/05 06:17:35;;;;;;;24.95;11.43;;;4.60;99.90;;;;;;5026479;28;20055;-69
2024/01/05 06:20:00;;;;;;;21.13;10.13;;;4.60;99.90;;;;;;5021498;28;20041;-69
2024/01/05 06:22:26;;;;;;;18.58;9.80;;;4.60;99.90;;;;;;5022755;28;20026;-69
2024/01/05 06:24:51;;;;;;;20.10;10.13;;;4.60;99.90;;;;;;5026168;28;20119;-69
2024/01/05 06:27:17;;;;;;;19.23;9.60;;;4.60;99.90;;;;;;5024752;28;20029;-69
2024/01/05 06:29:44;;;;;;;20.42;10.20;;;4.70;99.90;;;;;;5021760;28;20097;-69
2024/01/05 06:32:12;;;;;;;20.52;10.77;;;4.70;99.90;;;;;;5026083;28;20021;-69
2024/01/05 06:34:40;;;;;;;;;;;4.70;99.90;;;;;;5028782;28;20069;-69
2024/01/05 06:37:06;;;;;;;23.75;10.88;;;4.70;99.90;;;;;;5025563;28;19916;-69
2024/01/05 06:39:31;;;;;;;22.65;10.77;;;4.70;99.90;;;;;;5027990;28;20029;-69
2024/01/05 06:41:59;;;;;;;23.23;10.80;;;4.70;99.90;;;;;;5023898;28;20498;-69
2024/01/05 06:44:25;;;;;;;;;;;4.70;99.90;;;;;;5030708;28;20057;-69
2024/01/05 06:46:50;;;;;;;23.95;11.00;;;4.80;99.90;;;;;;5044429;22;20400;-69
2024/01/05 06:49:18;;;;;;;21.90;10.90;;;4.80;99.90;;;;;;5041597;28;20028;-69
2024/01/05 06:51:46;;;;;;;;;;;4.70;99.90;;;;;;5047387;28;20029;-69
2024/01/05 06:54:13;;;;;;;20.00;9.60;;;4.80;99.90;;;;;;5045326;28;20011;-69
2024/01/05 06:56:42;;;;;;;19.88;10.15;;;4.80;99.90;;;;;;5044064;28;20033;-69
2024/01/05 06:59:10;;;;;;;22.92;10.23;;;4.80;99.90;;;;;;5044135;28;20021;-69
2024/01/05 07:01:35;;;;;;;23.60;10.70;;;4.80;99.90;;;;;;5047248;28;20500;-69
2024/01/05 07:04:04;;;;;;;21.38;10.38;;;4.80;99.90;;;;;;5046778;28;20111;-70
2024/01/05 07:06:29;;;;;;;18.80;9.77;;;4.80;99.90;;;;;;5046214;28;20028;-70
2024/01/05 07:08:55;;;;;;;23.98;10.55;;;4.80;99.90;;;;;;5044555;28;20025;-70
2024/01/05 07:11:24;;;;;;;19.40;10.35;;;4.80;99.90;;;;;;5044874;28;20085;-70
2024/01/05 07:13:51;;;;;;;22.17;10.40;;;4.80;99.90;;;;;;5024436;28;20029;-69
2024/01/05 07:16:18;;;;;;;19.75;10.07;;;4.80;99.90;;;;;;5045136;28;20014;-70
2024/01/05 07:18:44;;;;;;;23.43;10.67;;;4.80;99.90;;;;;;5046401;28;20029;-70
2024/01/05 07:21:10;;;;;;;21.08;10.70;;;4.80;99.90;;;;;;5043476;28;20048;-70
2024/01/05 07:23:38;;;;;;;18.25;9.98;;;4.80;99.90;;;;;;5041295;28;20041;-70
2024/01/05 07:26:04;;;;;;;21.40;10.75;;;4.90;99.90;;;;;;5046498;28;20033;-69
2024/01/05 07:28:30;;;;;;;22.13;10.75;;;4.90;99.90;;;;;;5043550;28;20036;-69
2024/01/05 07:30:55;;;;;;;21.45;10.18;;;4.90;99.90;;;;;;5043678;28;20577;-69
2024/01/05 07:33:23;;;;;;;22.20;9.90;;;4.90;99.90;;;;;;5044239;28;20029;-70
2024/01/05 07:35:49;;;;;;;18.73;10.15;;;5.00;99.90;;;;;;5041267;28;20083;-70
2024/01/05 07:38:14;;;;;;;22.63;10.18;;;4.90;99.90;;;;;;5024474;28;20045;-69
2024/01/05 07:40:43;;;;;;;19.38;9.85;;;4.90;99.90;;;;;;5038713;28;20043;-70
2024/01/05 07:43:10;;;;;;;21.40;9.90;;;4.90;99.90;;;;;;5040686;28;20368;-70
2024/01/05 07:45:36;;;;;;;28.42;10.65;;;4.90;99.90;;;;;;5044549;28;20021;-70
2024/01/05 07:48:01;;;;;;;22.02;10.50;;;4.90;99.90;;;;;;5044482;28;20043;-70
2024/01/05 07:50:27;;;;;;;21.02;11.02;;;4.90;99.90;;;;;;5043869;28;20025;-70
2024/01/05 07:52:54;;;;;;;21.30;9.82;;;4.90;99.90;;;;;;5043658;28;20033;-69
2024/01/05 07:55:20;;;;;;;21.00;9.32;;;4.90;99.90;;;;;;5042779;28;20098;-69
2024/01/05 07:57:46;;;;;;;20.08;10.05;;;5.00;99.90;;;;;;5026908;28;20487;-69
2024/01/05 08:00:13;;;;;;;18.75;9.55;;;5.00;99.90;;;;;;5042067;28;20145;-69
2024/01/05 08:02:39;;;;;;;18.77;9.95;;;5.00;99.90;;;;;;5019766;28;20136;-70
2024/01/05 08:05:05;;;;;;;19.98;9.85;;;5.00;99.90;;;;;;5038822;28;20017;-70
2024/01/05 08:07:31;;;;;;;23.15;10.20;;;5.00;99.90;;;;;;5021351;28;20036;-70
2024/01/05 08:09:56;;;;;;;20.48;9.90;;;5.00;99.90;;;;;;5040961;28;20298;-70
2024/01/05 08:12:22;;;;;;;21.08;8.88;;;5.00;99.90;;;;;;5043591;28;20036;-69
2024/01/05 08:14:47;;;;;;;21.02;9.65;;;5.00;99.90;;;;;;5041125;28;20029;-70
2024/01/05 08:17:14;;;;;;;20.63;9.95;;;5.00;99.90;;;;;;5043842;28;20742;-70
2024/01/05 08:19:39;;;;;;;20.67;8.90;;;5.00;99.90;;;;;;5041752;28;20021;-70
2024/01/05 08:22:05;;;;;;;16.88;9.65;;;5.00;99.90;;;;;;5044086;28;20025;-69
2024/01/05 08:24:31;;;;;;;19.20;9.40;;;5.00;99.90;;;;;;5044574;28;20683;-69
2024/01/05 08:26:56;;;;;;;19.77;9.55;;;5.00;99.90;;;;;;5042082;28;20391;-69
2024/01/05 08:29:22;;;;;;;17.08;8.77;;;5.10;99.90;;;;;;5043188;28;20087;-70
2024/01/05 08:31:53;;;;;;;19.98;8.70;;;5.00;99.90;;;;;;5044599;28;20029;-70
2024/01/05 08:34:19;;;;;;;19.00;8.25;;;5.00;99.90;;;;;;5026320;28;20416;-70
2024/01/05 08:36:44;;;;;;;17.67;9.75;;;5.10;99.90;;;;;;5044498;28;20095;-70
2024/01/05 08:39:12;;;;;;;20.13;7.97;;;5.00;99.90;;;;;;5043223;28;20060;-69
2024/01/05 08:41:38;;;;;;;;;;;5.10;99.90;;;;;;5041336;28;20033;-70
2024/01/05 08:44:04;;;;;;;20.27;9.30;;;5.00;99.90;;;;;;5045728;28;19912;-70
2024/01/05 08:46:30;;;;;;;22.20;8.90;;;5.00;99.90;;;;;;5047912;28;20032;-70
2024/01/05 08:48:55;;;;;;;20.02;9.05;;;5.00;99.90;;;;;;5048697;28;20148;-70
2024/01/05 08:51:21;;;;;;;19.17;8.57;;;5.10;99.90;;;;;;5046598;28;20032;-70
2024/01/05 08:53:47;;;;;;;19.30;8.98;;;5.10;99.90;;;;;;5048003;28;20029;-69
2024/01/05 08:56:13;;;;;;;16.27;8.57;;;5.10;99.90;;;;;;5045774;28;20430;-70
2024/01/05 08:58:39;;;;;;;19.05;8.70;;;5.10;99.90;;;;;;5046989;28;20115;-70
2024/01/05 09:01:04;;;;;;;15.93;8.60;;;5.20;99.90;;;;;;5045264;28;20115;-70
2024/01/05 09:03:30;;;;;;;15.35;7.80;;;5.20;99.90;;;;;;5049750;28;20459;-70
2024/01/05 09:05:55;;;;;;;17.55;8.30;;;5.10;99.90;;;;;;5047242;28;20155;-70
2024/01/05 09:08:21;;;;;;;15.40;7.40;;;5.10;99.90;;;;;;5045612;28;20048;-70
2024/01/05 09:10:47;;;;;;;16.63;8.18;;;5.20;99.90;;;;;;5048600;28;20037;-70
2024/01/05 09:13:12;;;;;;;13.57;7.40;;;5.20;99.90;;;;;;5047870;28;20418;-70
2024/01/05 09:15:38;;;;;;;13.95;8.05;;;5.20;99.90;;;;;;5048123;28;20025;-70
2024/01/05 09:18:05;;;;;;;14.25;8.05;;;5.20;99.90;;;;;;5047856;28;20053;-69
2024/01/05 09:20:30;;;;;;;19.15;8.02;;;5.20;99.90;;;;;;5047190;28;20933;-69
2024/01/05 09:22:56;;;;;;;18.60;8.43;;;5.20;99.90;;;;;;5031694;28;20116;-70
2024/01/05 09:25:24;;;;;;;17.08;8.27;;;5.20;99.90;;;;;;5047873;28;20673;-70
2024/01/05 09:27:49;;;;;;;15.43;7.70;;;5.20;99.90;;;;;;5046037;28;20111;-70
2024/01/05 09:30:17;;;;;;;15.30;7.28;;;5.30;99.90;;;;;;5048118;28;20554;-70
2024/01/05 09:32:46;;;;;;;13.15;7.00;;;5.30;99.90;;;;;;5032243;28;20632;-70
2024/01/05 09:35:11;;;;;;;13.43;6.80;;;5.30;99.90;;;;;;5045177;28;20037;-70
2024/01/05 09:37:38;;;;;;;13.38;6.70;;;5.30;99.90;;;;;;5051341;28;20045;-69
2024/01/05 09:40:08;;;;;;;15.65;7.28;;;5.30;99.90;;;;;;5049304;28;20032;-70
2024/01/05 09:42:37;;;;;;;13.20;7.05;;;5.30;99.90;;;;;;5047788;28;20024;-70
2024/01/05 09:45:09;;;;;;;12.85;6.75;;;5.30;99.90;;;;;;5045128;28;20037;-69
2024/01/05 09:47:37;;;;;;;14.75;7.47;;;5.30;99.90;;;;;;5044647;28;20545;-70
2024/01/05 09:50:04;;;;;;;15.65;7.32;;;5.30;99.90;;;;;;5046210;28;20379;-70
2024/01/05 09:52:30;;;;;;;11.77;6.80;;;5.40;99.90;;;;;;5037106;28;20036;-69
2024/01/05 09:54:56;;;;;;;12.13;6.93;;;5.40;99.90;;;;;;5028255;28;20140;-70
2024/01/05 09:57:24;;;;;;;12.98;7.38;;;5.40;99.90;;;;;;5034689;28;20075;-70
2024/01/05 09:59:53;;;;;;;16.48;7.32;;;5.40;99.90;;;;;;5040429;28;20488;-70
2024/01/05 10:02:30;;;;;;;12.45;6.88;;;5.40;99.90;;;;;;5040772;28;20039;-70
2024/01/05 10:04:55;;;;;;;14.48;7.03;;;5.40;99.90;;;;;;5039076;28;20021;-70
2024/01/05 10:07:21;;;;;;;13.50;6.93;;;5.50;99.90;;;;;;5039586;28;20038;-70
2024/01/05 10:09:54;;;;;;;11.55;6.25;;;5.50;99.90;;;;;;5041397;28;20096;-70
2024/01/05 10:12:20;;;;;;;11.07;6.07;;;5.50;99.90;;;;;;5041473;28;20043;-70
2024/01/05 10:14:47;;;;;;;10.93;5.72;;;5.50;99.90;;;;;;5038869;28;20033;-70
2024/01/05 10:17:15;;;;;;;15.60;6.47;;;5.60;99.90;;;;;;5038164;28;20029;-70
2024/01/05 10:19:43;;;;;;;11.80;6.10;;;5.60;99.90;;;;;;5042103;28;20021;-70
2024/01/05 10:22:13;;;;;;;13.15;6.97;;;5.50;99.90;;;;;;5039184;28;20044;-70
2024/01/05 10:24:40;;;;;;;12.48;6.85;;;5.60;99.90;;;;;;5041835;28;20176;-70
2024/01/05 10:27:08;;;;;;;12.63;7.07;;;5.60;99.90;;;;;;5038667;28;20407;-70
2024/01/05 10:29:36;;;;;;;;;;;5.60;99.90;;;;;;5039704;28;20025;-70
2024/01/05 10:32:21;;;;;;;13.82;6.68;;;5.70;99.90;;;;;;5040256;28;19913;-70
2024/01/05 10:34:49;;;;;;;10.90;6.43;;;5.70;99.90;;;;;;5039122;28;20045;-70
2024/01/05 10:37:16;;;;;;;13.85;7.63;;;5.70;99.90;;;;;;5040147;28;20028;-70
2024/01/05 10:39:51;;;;;;;13.45;6.85;;;5.70;99.90;;;;;;5039157;28;20030;-70
2024/01/05 10:42:27;;;;;;;13.15;7.10;;;5.80;99.90;;;;;;5039297;28;20033;-70
2024/01/05 10:44:54;;;;;;;15.50;7.20;;;5.80;99.90;;;;;;5040259;28;20098;-70
2024/01/05 10:47:22;;;;;;;12.50;6.40;;;5.80;99.90;;;;;;5037525;28;20032;-70
2024/01/05 10:49:52;;;;;;;12.60;6.95;;;5.80;99.90;;;;;;5023350;28;20116;-70
2024/01/05 10:52:22;;;;;;;14.63;6.65;;;5.80;99.90;;;;;;5040120;28;20407;-70
2024/01/05 10:54:52;;;;;;;13.43;6.68;;;5.80;99.90;;;;;;5040177;28;20033;-70
2024/01/05 10:57:19;;;;;;;13.50;6.63;;;5.80;99.90;;;;;;5041783;28;20056;-70
2024/01/05 10:59:57;;;;;;;15.68;7.18;;;5.80;99.90;;;;;;5040505;28;20025;-69
2024/01/05 11:02:41;;;;;;;10.75;6.68;;;5.90;99.90;;;;;;5040854;28;20029;-69
2024/01/05 11:05:09;;;;;;;15.27;7.10;;;5.80;99.90;;;;;;5038050;28;22068;-69
2024/01/05 11:07:39;;;;;;;12.75;7.95;;;5.80;99.90;;;;;;5017852;28;20115;-70
2024/01/05 11:10:24;;;;;;;15.55;8.00;;;5.90;99.90;;;;;;5038529;28;20025;-69
2024/01/05 11:13:02;;;;;;;13.55;7.65;;;5.90;99.90;;;;;;5038624;28;20033;-70
2024/01/05 11:15:50;;;;;;;;;;;5.90;99.90;;;;;;5037463;28;20070;-70
2024/01/05 11:18:55;;;;;;;18.70;8.10;;;5.90;99.90;;;;;;5041229;28;19920;-72
2024/01/05 11:21:25;;;;;;;15.70;8.45;;;5.90;99.90;;;;;;5040972;28;20066;-70
2024/01/05 11:23:54;;;;;;;14.40;8.75;;;6.00;99.90;;;;;;5022124;28;20172;-70
2024/01/05 11:26:36;;;;;;;14.70;8.68;;;6.00;99.90;;;;;;5040370;28;20778;-70
2024/01/05 11:29:02;;;;;;;15.95;8.35;;;6.00;99.90;;;;;;5037280;28;20029;-72
2024/01/05 11:31:46;;;;;;;16.13;8.30;;;6.10;99.90;;;;;;5038775;28;20079;-70
2024/01/05 11:34:39;;;;;;;12.95;8.40;;;6.10;99.90;;;;;;5040071;28;20040;-70
2024/01/05 11:37:05;;;;;;;15.25;8.52;;;6.20;99.90;;;;;;5034252;28;20132;-70
2024/01/05 11:39:48;;;;;;;18.40;9.48;;;6.20;99.90;;;;;;5038251;28;20408;-70
2024/01/05 11:42:29;;;;;;;16.63;8.50;;;6.20;99.90;;;;;;5037371;28;20029;-70
2024/01/05 11:44:59;;;;;;;15.73;8.82;;;6.30;99.90;;;;;;5039503;28;20037;-69
2024/01/05 11:47:45;;;;;;;17.98;9.65;;;6.30;99.90;;;;;;5040942;28;20128;-70
2024/01/05 11:50:33;;;;;;;18.40;9.02;;;6.30;99.90;;;;;;5036742;28;20029;-70
2024/01/05 11:53:08;;;;;;;18.02;9.45;;;6.30;99.90;;;;;;5039314;28;20021;-70
2024/01/05 11:55:39;;;;;;;16.15;9.20;;;6.30;99.90;;;;;;5022823;28;20511;-72
2024/01/05 11:58:10;;;;;;;16.13;9.23;;;6.20;99.90;;;;;;5038607;28;20044;-70
2024/01/05 12:00:35;;;;;;;17.27;8.75;;;6.30;99.90;;;;;;5037711;28;20163;-70
2024/01/05 12:03:05;;;;;;;16.10;8.80;;;6.30;99.90;;;;;;5037623;28;20108;-70
2024/01/05 12:05:33;;;;;;;17.05;10.32;;;6.30;99.90;;;;;;5035454;28;20025;-70
2024/01/05 12:08:00;;;;;;;20.73;9.43;;;6.30;99.90;;;;;;5021873;28;20661;-70
2024/01/05 12:10:27;;;;;;;19.45;10.32;;;6.40;99.90;;;;;;5023177;28;20395;-70
2024/01/05 12:12:54;;;;;;;19.95;9.57;;;6.30;99.90;;;;;;5038799;28;20043;-72
2024/01/05 12:15:20;;;;;;;23.73;11.18;;;6.30;99.90;;;;;;5038736;28;20040;-70
2024/01/05 12:17:47;;;;;;;22.77;10.45;;;6.30;99.90;;;;;;5039075;28;20407;-71
2024/01/05 12:20:14;;;;;;;20.08;10.13;;;6.40;99.90;;;;;;5022014;28;20025;-70
2024/01/05 12:22:40;;;;;;;17.38;10.57;;;6.30;99.90;;;;;;5039293;28;20029;-70
2024/01/05 12:25:06;;;;;;;20.95;11.00;;;6.30;99.90;;;;;;5040045;28;20021;-70
2024/01/05 12:27:39;;;;;;;22.85;11.27;;;6.40;99.90;;;;;;5037953;28;20435;-71
2024/01/05 12:30:06;;;;;;;26.40;12.43;;;6.40;99.90;;;;;;5035918;28;20091;-70
2024/01/05 12:32:34;;;;;;;23.70;12.80;;;6.40;99.90;;;;;;5038111;28;20064;-70
2024/01/05 12:35:01;;;;;;;;;;;6.40;99.90;;;;;;5037842;28;20041;-70
2024/01/05 12:37:26;;;;;;;27.15;11.63;;;6.40;99.90;;;;;;5037145;28;20007;-71
2024/01/05 12:39:54;;;;;;;23.08;12.55;;;6.50;99.90;;;;;;5033743;28;20132;-70
2024/01/05 12:42:20;;;;;;;;;;;6.50;99.90;;;;;;5043997;28;20100;-71
2024/01/05 12:44:48;;;;;;;22.33;11.68;;;6.50;99.90;;;;;;5024651;28;20036;-72
2024/01/05 12:47:27;;;;;;;25.08;11.93;;;6.50;99.90;;;;;;5043472;22;20065;-70
2024/01/05 12:49:53;;;;;;;27.00;12.43;;;6.50;99.90;;;;;;5040284;28;20146;-73
2024/01/05 12:52:33;;;;;;;24.33;12.98;;;6.50;99.90;;;;;;5038065;28;20045;-70